Terminal Aerodrome Forecast
Issued by NWS

Home | Current Version | Previous Version | Text Only | Print | Product List | Glossary On
Versions: 1 2 3 4 5 6 7 8 9 10 11 12 13 14 15 16 17 18 19 20 21 22 23
000
FTUS41 KPBZ 150800 AAA
TAFMGW
TAF AMD
KMGW 150818Z 1508/1606 00000KT 1/4SM FG VV001
     FM151200 VRB03KT 2SM BR SCT003
     FM151400 17005KT P6SM SCT250=

USA.gov is the U.S. government's official web portal to all federal, state and local government web resources and services.